sensor_id;sensor_type;location;lat;lon;timestamp;pressure;altitude;pressure_sealevel;temperature;humidity
23241;BME280;11789;53.482;9.862;2023-01-28T00:01:08;103027.16;;;0.53;85.66
23241;BME280;11789;53.482;9.862;2023-01-28T00:03:34;103032.00;;;0.50;85.88
23241;BME280;11789;53.482;9.862;2023-01-28T00:06:25;103031.56;;;0.44;87.57
23241;BME280;11789;53.482;9.862;2023-01-28T00:08:51;103019.72;;;0.44;86.73
23241;BME280;11789;53.482;9.862;2023-01-28T00:11:16;103023.47;;;0.38;87.14
23241;BME280;11789;53.482;9.862;2023-01-28T00:13:43;103024.44;;;0.40;87.44
23241;BME280;11789;53.482;9.862;2023-01-28T00:16:09;103015.16;;;0.40;87.78
23241;BME280;11789;53.482;9.862;2023-01-28T00:18:35;103019.84;;;0.46;89.37
23241;BME280;11789;53.482;9.862;2023-01-28T00:21:05;103025.56;;;0.43;90.24
23241;BME280;11789;53.482;9.862;2023-01-28T00:23:33;103024.44;;;0.40;91.37
23241;BME280;11789;53.482;9.862;2023-01-28T00:26:02;103030.41;;;0.40;92.39
23241;BME280;11789;53.482;9.862;2023-01-28T00:28:28;103024.34;;;0.38;91.82
23241;BME280;11789;53.482;9.862;2023-01-28T00:30:53;103026.00;;;0.38;91.18
23241;BME280;11789;53.482;9.862;2023-01-28T00:33:19;103033.53;;;0.36;90.56
23241;BME280;11789;53.482;9.862;2023-01-28T00:35:44;103029.19;;;0.35;89.68
23241;BME280;11789;53.482;9.862;2023-01-28T00:38:10;103041.25;;;0.26;89.92
23241;BME280;11789;53.482;9.862;2023-01-28T00:40:36;103035.81;;;0.21;91.10
23241;BME280;11789;53.482;9.862;2023-01-28T00:43:02;103033.72;;;0.28;92.43
23241;BME280;11789;53.482;9.862;2023-01-28T00:45:27;103032.72;;;0.25;91.96
23241;BME280;11789;53.482;9.862;2023-01-28T00:47:53;103031.69;;;0.23;93.37
23241;BME280;11789;53.482;9.862;2023-01-28T00:50:19;103023.53;;;0.28;92.79
23241;BME280;11789;53.482;9.862;2023-01-28T00:52:46;103026.87;;;0.27;92.69
23241;BME280;11789;53.482;9.862;2023-01-28T00:55:20;103024.94;;;0.24;93.27
23241;BME280;11789;53.482;9.862;2023-01-28T00:57:45;103025.19;;;0.27;94.57
23241;BME280;11789;53.482;9.862;2023-01-28T01:00:11;103025.63;;;0.21;95.39
23241;BME280;11789;53.482;9.862;2023-01-28T01:02:36;103027.41;;;0.22;96.06
23241;BME280;11789;53.482;9.862;2023-01-28T01:05:02;103028.16;;;0.21;95.66
23241;BME280;11789;53.482;9.862;2023-01-28T01:07:29;103028.59;;;0.16;95.53
23241;BME280;11789;53.482;9.862;2023-01-28T01:10:27;103021.78;;;0.05;95.70
23241;BME280;11789;53.482;9.862;2023-01-28T01:12:53;103022.72;;;-0.05;95.80
23241;BME280;11789;53.482;9.862;2023-01-28T01:15:19;103024.16;;;-0.09;95.49
23241;BME280;11789;53.482;9.862;2023-01-28T01:17:46;103020.75;;;-0.09;95.31
23241;BME280;11789;53.482;9.862;2023-01-28T01:20:17;103018.94;;;-0.10;94.94
23241;BME280;11789;53.482;9.862;2023-01-28T01:22:43;103017.63;;;-0.05;93.66
23241;BME280;11789;53.482;9.862;2023-01-28T01:25:09;103024.53;;;-0.04;93.13
23241;BME280;11789;53.482;9.862;2023-01-28T01:27:35;103028.53;;;0.04;93.88
23241;BME280;11789;53.482;9.862;2023-01-28T01:30:01;103029.19;;;0.02;95.29
23241;BME280;11789;53.482;9.862;2023-01-28T01:32:31;103027.78;;;0.05;95.63
23241;BME280;11789;53.482;9.862;2023-01-28T01:34:57;103033.59;;;0.04;95.52
23241;BME280;11789;53.482;9.862;2023-01-28T01:37:23;103033.59;;;0.04;96.29
23241;BME280;11789;53.482;9.862;2023-01-28T01:39:48;103029.38;;;-0.07;96.65
23241;BME280;11789;53.482;9.862;2023-01-28T01:42:14;103025.94;;;-0.08;96.20
23241;BME280;11789;53.482;9.862;2023-01-28T01:47:54;103025.75;;;-0.21;95.18
23241;BME280;11789;53.482;9.862;2023-01-28T01:50:30;103026.41;;;-0.23;94.71
23241;BME280;11789;53.482;9.862;2023-01-28T01:53:01;103026.94;;;-0.28;95.50
23241;BME280;11789;53.482;9.862;2023-01-28T01:55:30;103021.84;;;-0.28;95.38
23241;BME280;11789;53.482;9.862;2023-01-28T01:57:59;103021.59;;;-0.31;94.97
23241;BME280;11789;53.482;9.862;2023-01-28T02:00:27;103024.03;;;-0.32;94.58
23241;BME280;11789;53.482;9.862;2023-01-28T02:02:54;103020.13;;;-0.39;94.43
23241;BME280;11789;53.482;9.862;2023-01-28T02:05:21;103020.66;;;-0.43;94.61
23241;BME280;11789;53.482;9.862;2023-01-28T02:07:49;103018.53;;;-0.48;94.92
23241;BME280;11789;53.482;9.862;2023-01-28T02:10:16;103015.97;;;-0.48;95.30
23241;BME280;11789;53.482;9.862;2023-01-28T02:12:47;103027.97;;;-0.36;95.74
23241;BME280;11789;53.482;9.862;2023-01-28T02:15:18;103024.13;;;-0.31;96.61
23241;BME280;11789;53.482;9.862;2023-01-28T02:17:45;103027.94;;;-0.26;96.54
23241;BME280;11789;53.482;9.862;2023-01-28T02:20:13;103027.19;;;-0.24;96.39
23241;BME280;11789;53.482;9.862;2023-01-28T02:26:43;103022.16;;;-0.35;95.35
23241;BME280;11789;53.482;9.862;2023-01-28T02:28:54;103024.19;;;-0.41;96.41
23241;BME280;11789;53.482;9.862;2023-01-28T02:34:20;103030.03;;;-0.42;95.96
23241;BME280;11789;53.482;9.862;2023-01-28T02:36:50;103022.69;;;-0.39;96.15
23241;BME280;11789;53.482;9.862;2023-01-28T02:39:24;103023.03;;;-0.34;96.68
23241;BME280;11789;53.482;9.862;2023-01-28T02:41:55;103018.41;;;-0.50;97.50
23241;BME280;11789;53.482;9.862;2023-01-28T02:44:22;103015.91;;;-0.60;97.90
23241;BME280;11789;53.482;9.862;2023-01-28T02:46:47;103025.06;;;-0.62;97.18
23241;BME280;11789;53.482;9.862;2023-01-28T02:49:48;103021.25;;;-0.67;96.97
23241;BME280;11789;53.482;9.862;2023-01-28T02:52:28;103010.72;;;-0.72;97.15
23241;BME280;11789;53.482;9.862;2023-01-28T03:03:19;103023.59;;;-0.48;97.64
23241;BME280;11789;53.482;9.862;2023-01-28T03:05:55;103029.31;;;-0.51;98.39
23241;BME280;11789;53.482;9.862;2023-01-28T03:08:34;103028.28;;;-0.43;98.55
23241;BME280;11789;53.482;9.862;2023-01-28T03:11:19;103020.97;;;-0.50;98.89
23241;BME280;11789;53.482;9.862;2023-01-28T03:14:04;103023.41;;;-0.62;99.23
23241;BME280;11789;53.482;9.862;2023-01-28T03:16:50;103018.88;;;-0.66;99.55
23241;BME280;11789;53.482;9.862;2023-01-28T03:19:35;103018.59;;;-0.69;99.94
23241;BME280;11789;53.482;9.862;2023-01-28T03:22:20;103013.69;;;-0.77;100.00
23241;BME280;11789;53.482;9.862;2023-01-28T03:25:07;103019.50;;;-0.68;100.00
23241;BME280;11789;53.482;9.862;2023-01-28T03:28:01;103011.94;;;-0.57;100.00
23241;BME280;11789;53.482;9.862;2023-01-28T03:30:56;103010.28;;;-0.56;99.04
23241;BME280;11789;53.482;9.862;2023-01-28T03:33:42;103007.19;;;-0.74;99.24
23241;BME280;11789;53.482;9.862;2023-01-28T03:36:29;103008.00;;;-0.85;99.70
23241;BME280;11789;53.482;9.862;2023-01-28T03:39:38;103009.87;;;-0.83;100.00
23241;BME280;11789;53.482;9.862;2023-01-28T03:42:12;103012.13;;;-0.65;100.00
23241;BME280;11789;53.482;9.862;2023-01-28T03:44:38;103018.81;;;-0.56;99.78
23241;BME280;11789;53.482;9.862;2023-01-28T03:47:17;103015.91;;;-0.60;99.31
23241;BME280;11789;53.482;9.862;2023-01-28T03:49:47;103015.41;;;-0.66;100.00
23241;BME280;11789;53.482;9.862;2023-01-28T03:52:15;103021.75;;;-0.61;100.00
23241;BME280;11789;53.482;9.862;2023-01-28T03:54:43;103020.84;;;-0.62;100.00
23241;BME280;11789;53.482;9.862;2023-01-28T03:57:08;103023.94;;;-0.66;100.00
23241;BME280;11789;53.482;9.862;2023-01-28T03:59:34;103025.56;;;-0.66;100.00
23241;BME280;11789;53.482;9.862;2023-01-28T04:01:59;103025.94;;;-0.62;100.00
23241;BME280;11789;53.482;9.862;2023-01-28T04:04:47;103026.31;;;-0.57;100.00
23241;BME280;11789;53.482;9.862;2023-01-28T04:07:14;103021.62;;;-0.63;100.00
23241;BME280;11789;53.482;9.862;2023-01-28T04:09:41;103020.75;;;-0.63;100.00
23241;BME280;11789;53.482;9.862;2023-01-28T04:12:08;103024.56;;;-0.68;100.00
23241;BME280;11789;53.482;9.862;2023-01-28T04:14:34;103024.72;;;-0.77;100.00
23241;BME280;11789;53.482;9.862;2023-01-28T04:16:59;103026.25;;;-0.79;100.00
23241;BME280;11789;53.482;9.862;2023-01-28T04:19:26;103023.84;;;-0.77;100.00
23241;BME280;11789;53.482;9.862;2023-01-28T04:21:52;103011.12;;;-0.77;100.00
23241;BME280;11789;53.482;9.862;2023-01-28T04:24:19;103013.44;;;-0.81;100.00
23241;BME280;11789;53.482;9.862;2023-01-28T04:26:44;103014.72;;;-0.75;100.00
23241;BME280;11789;53.482;9.862;2023-01-28T04:29:10;103018.88;;;-0.66;100.00
23241;BME280;11789;53.482;9.862;2023-01-28T04:31:35;103015.41;;;-0.66;100.00
23241;BME280;11789;53.482;9.862;2023-01-28T04:34:01;103012.66;;;-0.69;100.00
23241;BME280;11789;53.482;9.862;2023-01-28T04:36:26;103011.09;;;-0.67;100.00
23241;BME280;11789;53.482;9.862;2023-01-28T04:38:52;103012.16;;;-0.75;100.00
23241;BME280;11789;53.482;9.862;2023-01-28T04:41:18;103010.53;;;-0.85;100.00
23241;BME280;11789;53.482;9.862;2023-01-28T04:43:43;103011.44;;;-0.85;100.00
23241;BME280;11789;53.482;9.862;2023-01-28T04:46:09;103007.13;;;-0.86;100.00
23241;BME280;11789;53.482;9.862;2023-01-28T04:48:34;103002.28;;;-0.93;100.00
23241;BME280;11789;53.482;9.862;2023-01-28T04:51:02;103009.41;;;-0.89;100.00
23241;BME280;11789;53.482;9.862;2023-01-28T04:53:28;103012.59;;;-1.01;100.00
23241;BME280;11789;53.482;9.862;2023-01-28T04:55:55;103017.81;;;-1.00;100.00
23241;BME280;11789;53.482;9.862;2023-01-28T04:58:20;103019.97;;;-0.94;100.00
23241;BME280;11789;53.482;9.862;2023-01-28T05:00:45;103018.78;;;-0.88;100.00
23241;BME280;11789;53.482;9.862;2023-01-28T05:03:11;103023.13;;;-0.97;100.00
23241;BME280;11789;53.482;9.862;2023-01-28T05:05:36;103022.66;;;-1.13;100.00
23241;BME280;11789;53.482;9.862;2023-01-28T05:08:02;103021.66;;;-1.25;100.00
23241;BME280;11789;53.482;9.862;2023-01-28T05:10:27;103018.09;;;-1.38;100.00
23241;BME280;11789;53.482;9.862;2023-01-28T05:12:53;103013.81;;;-1.39;100.00
23241;BME280;11789;53.482;9.862;2023-01-28T05:15:19;103018.09;;;-1.27;100.00
23241;BME280;11789;53.482;9.862;2023-01-28T05:17:45;103011.34;;;-1.17;100.00
23241;BME280;11789;53.482;9.862;2023-01-28T05:20:12;103011.50;;;-1.15;100.00
23241;BME280;11789;53.482;9.862;2023-01-28T05:22:39;102997.56;;;-1.20;100.00
23241;BME280;11789;53.482;9.862;2023-01-28T05:25:05;103002.13;;;-1.26;100.00
23241;BME280;11789;53.482;9.862;2023-01-28T05:27:32;102993.88;;;-1.34;100.00
23241;BME280;11789;53.482;9.862;2023-01-28T05:29:58;102993.13;;;-1.53;100.00
23241;BME280;11789;53.482;9.862;2023-01-28T05:32:24;102989.72;;;-1.64;100.00
23241;BME280;11789;53.482;9.862;2023-01-28T05:34:50;102985.69;;;-1.72;100.00
23241;BME280;11789;53.482;9.862;2023-01-28T05:37:15;102980.84;;;-1.59;100.00
23241;BME280;11789;53.482;9.862;2023-01-28T05:39:41;102979.34;;;-1.47;100.00
23241;BME280;11789;53.482;9.862;2023-01-28T05:42:06;102986.41;;;-1.43;100.00
23241;BME280;11789;53.482;9.862;2023-01-28T05:44:31;102988.44;;;-1.39;100.00
23241;BME280;11789;53.482;9.862;2023-01-28T05:46:57;102995.81;;;-1.32;100.00
23241;BME280;11789;53.482;9.862;2023-01-28T05:49:22;102991.72;;;-1.29;100.00
23241;BME280;11789;53.482;9.862;2023-01-28T05:51:51;102986.00;;;-1.37;100.00
23241;BME280;11789;53.482;9.862;2023-01-28T05:54:16;102995.56;;;-1.45;100.00
23241;BME280;11789;53.482;9.862;2023-01-28T05:56:41;103003.94;;;-1.46;100.00
23241;BME280;11789;53.482;9.862;2023-01-28T05:59:10;103000.75;;;-1.43;100.00
23241;BME280;11789;53.482;9.862;2023-01-28T06:01:36;102995.06;;;-1.61;100.00
23241;BME280;11789;53.482;9.862;2023-01-28T06:04:01;102990.88;;;-1.81;100.00
23241;BME280;11789;53.482;9.862;2023-01-28T06:06:27;102982.37;;;-1.92;100.00
23241;BME280;11789;53.482;9.862;2023-01-28T06:08:53;102996.56;;;-1.84;100.00
23241;BME280;11789;53.482;9.862;2023-01-28T06:11:21;103006.97;;;-1.70;100.00
23241;BME280;11789;53.482;9.862;2023-01-28T06:13:47;102994.28;;;-1.70;100.00
23241;BME280;11789;53.482;9.862;2023-01-28T06:16:12;102987.84;;;-1.67;100.00
23241;BME280;11789;53.482;9.862;2023-01-28T06:18:38;102985.91;;;-1.69;100.00
23241;BME280;11789;53.482;9.862;2023-01-28T06:21:06;102995.28;;;-1.78;100.00
23241;BME280;11789;53.482;9.862;2023-01-28T06:23:32;102995.78;;;-1.83;100.00
23241;BME280;11789;53.482;9.862;2023-01-28T06:25:58;102987.81;;;-1.87;100.00
23241;BME280;11789;53.482;9.862;2023-01-28T06:28:26;102979.28;;;-1.98;100.00
23241;BME280;11789;53.482;9.862;2023-01-28T06:30:52;102984.00;;;-2.13;100.00
23241;BME280;11789;53.482;9.862;2023-01-28T06:33:18;102990.44;;;-2.16;100.00
23241;BME280;11789;53.482;9.862;2023-01-28T06:35:44;102988.66;;;-2.17;100.00
23241;BME280;11789;53.482;9.862;2023-01-28T06:38:11;102976.09;;;-2.26;100.00
23241;BME280;11789;53.482;9.862;2023-01-28T06:40:37;102974.06;;;-2.30;100.00
23241;BME280;11789;53.482;9.862;2023-01-28T06:43:03;102975.44;;;-2.33;100.00
23241;BME280;11789;53.482;9.862;2023-01-28T06:45:28;102975.59;;;-2.32;100.00
23241;BME280;11789;53.482;9.862;2023-01-28T06:47:54;102971.41;;;-2.31;100.00
23241;BME280;11789;53.482;9.862;2023-01-28T06:50:19;102973.94;;;-2.31;100.00
23241;BME280;11789;53.482;9.862;2023-01-28T06:52:45;102978.13;;;-2.32;100.00
23241;BME280;11789;53.482;9.862;2023-01-28T06:55:10;102975.97;;;-2.27;100.00
23241;BME280;11789;53.482;9.862;2023-01-28T06:57:37;102988.78;;;-2.26;100.00
23241;BME280;11789;53.482;9.862;2023-01-28T07:00:05;102987.88;;;-2.26;100.00
23241;BME280;11789;53.482;9.862;2023-01-28T07:02:31;103000.19;;;-2.21;100.00
23241;BME280;11789;53.482;9.862;2023-01-28T07:04:56;103004.78;;;-2.06;100.00
23241;BME280;11789;53.482;9.862;2023-01-28T07:07:22;103015.81;;;-1.96;100.00
23241;BME280;11789;53.482;9.862;2023-01-28T07:09:47;103019.25;;;-1.85;100.00
23241;BME280;11789;53.482;9.862;2023-01-28T07:12:13;103032.81;;;-1.74;100.00
23241;BME280;11789;53.482;9.862;2023-01-28T07:14:38;103032.94;;;-1.73;100.00
23241;BME280;11789;53.482;9.862;2023-01-28T07:17:04;103040.44;;;-1.74;100.00
23241;BME280;11789;53.482;9.862;2023-01-28T07:19:29;103065.03;;;-1.73;100.00
23241;BME280;11789;53.482;9.862;2023-01-28T07:21:54;103058.97;;;-1.65;100.00
23241;BME280;11789;53.482;9.862;2023-01-28T07:24:22;103063.25;;;-1.64;99.74
23241;BME280;11789;53.482;9.862;2023-01-28T07:26:47;103066.56;;;-1.65;99.50
23241;BME280;11789;53.482;9.862;2023-01-28T07:29:13;103058.19;;;-1.64;98.83
23241;BME280;11789;53.482;9.862;2023-01-28T07:31:38;103061.00;;;-1.71;98.71
23241;BME280;11789;53.482;9.862;2023-01-28T07:34:04;103064.53;;;-1.69;98.51
23241;BME280;11789;53.482;9.862;2023-01-28T07:36:29;103068.22;;;-1.66;97.76
23241;BME280;11789;53.482;9.862;2023-01-28T07:38:55;103063.75;;;-1.78;97.66
23241;BME280;11789;53.482;9.862;2023-01-28T07:41:20;103068.69;;;-1.90;98.92
23241;BME280;11789;53.482;9.862;2023-01-28T07:43:46;103069.94;;;-1.95;99.76
23241;BME280;11789;53.482;9.862;2023-01-28T07:46:11;103063.84;;;-1.97;100.00
23241;BME280;11789;53.482;9.862;2023-01-28T07:48:37;103068.94;;;-1.97;100.00
23241;BME280;11789;53.482;9.862;2023-01-28T07:51:02;103071.13;;;-1.81;100.00
23241;BME280;11789;53.482;9.862;2023-01-28T07:53:28;103076.06;;;-1.42;98.31
23241;BME280;11789;53.482;9.862;2023-01-28T07:56:00;103075.84;;;-1.45;96.42
23241;BME280;11789;53.482;9.862;2023-01-28T07:58:26;103071.38;;;-1.27;96.54
23241;BME280;11789;53.482;9.862;2023-01-28T08:00:55;103071.91;;;-1.32;95.33
23241;BME280;11789;53.482;9.862;2023-01-28T08:03:21;103070.66;;;-1.57;96.64
23241;BME280;11789;53.482;9.862;2023-01-28T08:05:48;103072.53;;;-1.65;97.40
23241;BME280;11789;53.482;9.862;2023-01-28T08:08:14;103082.38;;;-1.78;97.92
23241;BME280;11789;53.482;9.862;2023-01-28T08:10:40;103086.97;;;-1.64;98.84
23241;BME280;11789;53.482;9.862;2023-01-28T08:13:08;103094.59;;;-1.43;98.08
23241;BME280;11789;53.482;9.862;2023-01-28T08:15:34;103090.81;;;-1.38;97.24
23241;BME280;11789;53.482;9.862;2023-01-28T08:18:03;103087.53;;;-0.54;96.03
23241;BME280;11789;53.482;9.862;2023-01-28T08:20:29;103087.50;;;0.32;90.08
23241;BME280;11789;53.482;9.862;2023-01-28T08:23:15;103086.12;;;-0.18;89.36
23241;BME280;11789;53.482;9.862;2023-01-28T08:25:41;103073.81;;;-0.66;91.00
23241;BME280;11789;53.482;9.862;2023-01-28T08:28:07;103077.94;;;-0.79;92.77
23241;BME280;11789;53.482;9.862;2023-01-28T08:30:34;103078.03;;;-0.77;92.53
23241;BME280;11789;53.482;9.862;2023-01-28T08:33:02;103078.25;;;-0.54;93.16
23241;BME280;11789;53.482;9.862;2023-01-28T08:35:27;103071.44;;;1.96;86.77
23241;BME280;11789;53.482;9.862;2023-01-28T08:37:53;103059.81;;;6.53;66.90
23241;BME280;11789;53.482;9.862;2023-01-28T08:40:19;103046.03;;;8.93;56.28
23241;BME280;11789;53.482;9.862;2023-01-28T08:42:46;103038.94;;;8.09;55.71
23241;BME280;11789;53.482;9.862;2023-01-28T08:45:13;103068.34;;;6.19;59.23
23241;BME280;11789;53.482;9.862;2023-01-28T08:48:03;103064.91;;;4.66;63.52
23241;BME280;11789;53.482;9.862;2023-01-28T08:50:36;103063.09;;;4.35;65.92
23241;BME280;11789;53.482;9.862;2023-01-28T08:53:05;103055.31;;;5.83;63.40
23241;BME280;11789;53.482;9.862;2023-01-28T08:55:33;103061.22;;;6.98;58.70
23241;BME280;11789;53.482;9.862;2023-01-28T08:58:03;103071.88;;;7.59;56.37
23241;BME280;11789;53.482;9.862;2023-01-28T09:00:29;103060.28;;;7.14;56.28
23241;BME280;11789;53.482;9.862;2023-01-28T09:02:54;103061.75;;;9.20;51.94
23241;BME280;11789;53.482;9.862;2023-01-28T09:05:20;103071.66;;;11.22;46.48
23241;BME280;11789;53.482;9.862;2023-01-28T09:07:47;103072.91;;;12.52;42.42
23241;BME280;11789;53.482;9.862;2023-01-28T09:10:13;103058.50;;;14.14;38.53
23241;BME280;11789;53.482;9.862;2023-01-28T09:12:40;103061.44;;;15.36;34.65
23241;BME280;11789;53.482;9.862;2023-01-28T09:15:07;103068.97;;;15.73;33.00
23241;BME280;11789;53.482;9.862;2023-01-28T09:17:32;103053.22;;;17.45;29.86
23241;BME280;11789;53.482;9.862;2023-01-28T09:19:58;103058.88;;;18.93;27.50
23241;BME280;11789;53.482;9.862;2023-01-28T09:22:23;103071.00;;;19.69;26.00
23241;BME280;11789;53.482;9.862;2023-01-28T09:24:49;103080.47;;;20.07;24.71
23241;BME280;11789;53.482;9.862;2023-01-28T09:27:14;103077.00;;;20.02;24.20
23241;BME280;11789;53.482;9.862;2023-01-28T09:29:40;103088.44;;;19.84;24.42
23241;BME280;11789;53.482;9.862;2023-01-28T09:32:05;103092.06;;;18.88;25.47
23241;BME280;11789;53.482;9.862;2023-01-28T09:34:34;103095.13;;;17.60;26.74
23241;BME280;11789;53.482;9.862;2023-01-28T09:37:00;103092.78;;;18.11;26.63
23241;BME280;11789;53.482;9.862;2023-01-28T09:39:26;103099.09;;;19.02;25.33
23241;BME280;11789;53.482;9.862;2023-01-28T09:47:33;103100.69;;;18.29;25.48
23241;BME280;11789;53.482;9.862;2023-01-28T09:50:05;103105.50;;;17.45;26.57
23241;BME280;11789;53.482;9.862;2023-01-28T09:52:34;103108.56;;;15.48;28.50
23241;BME280;11789;53.482;9.862;2023-01-28T09:55:09;103109.34;;;13.59;31.28
23241;BME280;11789;53.482;9.862;2023-01-28T09:57:42;103104.97;;;10.86;35.54
23241;BME280;11789;53.482;9.862;2023-01-28T10:00:14;103107.84;;;8.71;40.06
23241;BME280;11789;53.482;9.862;2023-01-28T10:02:48;103111.25;;;7.21;43.30
23241;BME280;11789;53.482;9.862;2023-01-28T10:18:36;103086.53;;;3.59;57.99
23241;BME280;11789;53.482;9.862;2023-01-28T10:21:53;103096.97;;;3.49;58.14
23241;BME280;11789;53.482;9.862;2023-01-28T10:26:26;103092.44;;;3.05;60.00
23241;BME280;11789;53.482;9.862;2023-01-28T10:28:58;103087.53;;;2.95;60.81
23241;BME280;11789;53.482;9.862;2023-01-28T10:31:31;103085.72;;;2.80;62.21
23241;BME280;11789;53.482;9.862;2023-01-28T10:33:59;103080.47;;;2.66;62.58
23241;BME280;11789;53.482;9.862;2023-01-28T10:36:25;103082.31;;;2.55;62.79
23241;BME280;11789;53.482;9.862;2023-01-28T10:38:51;103091.56;;;2.41;63.15
23241;BME280;11789;53.482;9.862;2023-01-28T10:41:20;103085.38;;;2.38;63.48
23241;BME280;11789;53.482;9.862;2023-01-28T10:43:47;103073.06;;;2.32;63.84
23241;BME280;11789;53.482;9.862;2023-01-28T10:46:33;103065.72;;;2.37;64.99
23241;BME280;11789;53.482;9.862;2023-01-28T10:49:11;103060.87;;;2.28;65.11
23241;BME280;11789;53.482;9.862;2023-01-28T10:51:40;103062.34;;;2.24;65.73
23241;BME280;11789;53.482;9.862;2023-01-28T10:54:21;103043.47;;;2.22;65.75
23241;BME280;11789;53.482;9.862;2023-01-28T10:56:50;103047.66;;;2.08;65.84
23241;BME280;11789;53.482;9.862;2023-01-28T10:59:29;103054.31;;;2.06;66.71
23241;BME280;11789;53.482;9.862;2023-01-28T11:01:57;103048.69;;;1.99;67.62
23241;BME280;11789;53.482;9.862;2023-01-28T11:04:29;103036.09;;;1.89;68.23
23241;BME280;11789;53.482;9.862;2023-01-28T11:09:28;103022.28;;;1.62;69.14
23241;BME280;11789;53.482;9.862;2023-01-28T11:11:56;103019.50;;;1.70;69.42
23241;BME280;11789;53.482;9.862;2023-01-28T11:14:24;103010.97;;;1.70;69.71
23241;BME280;11789;53.482;9.862;2023-01-28T11:16:52;103006.31;;;1.64;70.14
23241;BME280;11789;53.482;9.862;2023-01-28T11:19:20;103017.88;;;1.59;70.00
23241;BME280;11789;53.482;9.862;2023-01-28T11:21:54;103020.41;;;1.59;70.61
23241;BME280;11789;53.482;9.862;2023-01-28T11:24:24;103006.31;;;1.64;70.81
23241;BME280;11789;53.482;9.862;2023-01-28T11:26:53;102990.72;;;1.60;70.88
23241;BME280;11789;53.482;9.862;2023-01-28T11:29:32;102988.06;;;1.46;71.19
23241;BME280;11789;53.482;9.862;2023-01-28T11:31:59;102981.00;;;1.42;71.54
23241;BME280;11789;53.482;9.862;2023-01-28T11:34:28;102976.88;;;1.44;71.70
23241;BME280;11789;53.482;9.862;2023-01-28T11:37:02;102979.53;;;1.46;71.40
23241;BME280;11789;53.482;9.862;2023-01-28T11:39:28;102981.53;;;1.50;71.67
23241;BME280;11789;53.482;9.862;2023-01-28T11:42:20;102983.53;;;1.54;71.69
23241;BME280;11789;53.482;9.862;2023-01-28T11:44:47;102978.63;;;1.57;71.83
23241;BME280;11789;53.482;9.862;2023-01-28T11:47:37;102967.41;;;1.67;71.60
23241;BME280;11789;53.482;9.862;2023-01-28T12:01:42;102948.19;;;1.97;71.93
23241;BME280;11789;53.482;9.862;2023-01-28T12:21:04;102977.66;;;1.80;73.39
23241;BME280;11789;53.482;9.862;2023-01-28T12:28:59;102946.03;;;1.90;73.92
23241;BME280;11789;53.482;9.862;2023-01-28T12:34:33;102944.28;;;1.89;74.03
23241;BME280;11789;53.482;9.862;2023-01-28T12:42:34;102941.34;;;1.96;74.13
23241;BME280;11789;53.482;9.862;2023-01-28T12:47:44;102931.37;;;1.87;74.49
23241;BME280;11789;53.482;9.862;2023-01-28T12:50:19;102931.50;;;1.89;74.74
23241;BME280;11789;53.482;9.862;2023-01-28T12:53:00;102927.91;;;1.98;74.96
23241;BME280;11789;53.482;9.862;2023-01-28T12:55:44;102925.19;;;2.08;74.96
23241;BME280;11789;53.482;9.862;2023-01-28T12:58:17;102906.56;;;2.10;75.08
23241;BME280;11789;53.482;9.862;2023-01-28T13:00:49;102904.34;;;2.02;75.18
23241;BME280;11789;53.482;9.862;2023-01-28T13:03:26;102897.50;;;2.01;75.36
23241;BME280;11789;53.482;9.862;2023-01-28T13:05:58;102894.75;;;1.98;75.89
23241;BME280;11789;53.482;9.862;2023-01-28T13:08:26;102895.63;;;1.99;75.93
23241;BME280;11789;53.482;9.862;2023-01-28T13:10:54;102900.75;;;1.99;75.96
23241;BME280;11789;53.482;9.862;2023-01-28T13:13:37;102912.50;;;1.97;76.09
23241;BME280;11789;53.482;9.862;2023-01-28T13:16:06;102898.97;;;1.98;76.61
23241;BME280;11789;53.482;9.862;2023-01-28T13:21:04;102889.66;;;1.98;77.71
23241;BME280;11789;53.482;9.862;2023-01-28T13:28:43;102891.31;;;1.98;78.14
23241;BME280;11789;53.482;9.862;2023-01-28T13:31:11;102889.81;;;1.88;77.95
23241;BME280;11789;53.482;9.862;2023-01-28T13:33:59;102883.63;;;1.85;78.31
23241;BME280;11789;53.482;9.862;2023-01-28T13:36:47;102892.84;;;1.83;78.43
23241;BME280;11789;53.482;9.862;2023-01-28T13:41:50;102897.72;;;1.79;79.26
23241;BME280;11789;53.482;9.862;2023-01-28T13:44:36;102906.47;;;1.83;78.78
23241;BME280;11789;53.482;9.862;2023-01-28T13:49:55;102908.56;;;1.89;79.02
23241;BME280;11789;53.482;9.862;2023-01-28T14:14:20;102927.97;;;1.87;79.88
23241;BME280;11789;53.482;9.862;2023-01-28T14:16:56;102929.53;;;1.85;80.20
23241;BME280;11789;53.482;9.862;2023-01-28T14:19:30;102924.22;;;1.81;80.76
23241;BME280;11789;53.482;9.862;2023-01-28T14:21:57;102934.31;;;1.80;81.28
23241;BME280;11789;53.482;9.862;2023-01-28T14:24:22;102930.88;;;1.79;81.87
23241;BME280;11789;53.482;9.862;2023-01-28T14:26:58;102928.13;;;1.76;81.94
23241;BME280;11789;53.482;9.862;2023-01-28T14:29:54;102914.47;;;1.76;82.22
23241;BME280;11789;53.482;9.862;2023-01-28T14:32:27;102908.28;;;1.72;82.40
23241;BME280;11789;53.482;9.862;2023-01-28T14:34:54;102908.09;;;1.69;81.84
23241;BME280;11789;53.482;9.862;2023-01-28T14:37:24;102913.19;;;1.69;81.87
23241;BME280;11789;53.482;9.862;2023-01-28T14:42:29;102905.31;;;1.66;81.87
23241;BME280;11789;53.482;9.862;2023-01-28T14:50:36;102904.91;;;1.60;82.72
23241;BME280;11789;53.482;9.862;2023-01-28T14:59:17;102921.00;;;1.59;82.80
23241;BME280;11789;53.482;9.862;2023-01-28T15:01:47;102934.53;;;1.58;83.19
23241;BME280;11789;53.482;9.862;2023-01-28T15:04:26;102935.19;;;1.55;83.08
23241;BME280;11789;53.482;9.862;2023-01-28T15:06:52;102935.28;;;1.57;83.31
23241;BME280;11789;53.482;9.862;2023-01-28T15:09:17;102939.63;;;1.58;83.51
23241;BME280;11789;53.482;9.862;2023-01-28T15:11:45;102941.28;;;1.58;83.67
23241;BME280;11789;53.482;9.862;2023-01-28T15:14:24;102945.59;;;1.59;83.75
23241;BME280;11789;53.482;9.862;2023-01-28T15:16:51;102950.00;;;1.61;83.93
23241;BME280;11789;53.482;9.862;2023-01-28T15:19:24;102955.09;;;1.61;84.05